createdAt,value
2018-12-22T00:00:24.785Z,14.10
2018-12-22T00:02:53.217Z,14.10
2018-12-22T00:05:21.587Z,14.10
2018-12-22T00:07:49.807Z,14.10
2018-12-22T00:10:18.066Z,14.00
2018-12-22T00:12:46.350Z,14.00
2018-12-22T00:15:14.695Z,14.10
2018-12-22T00:17:42.969Z,14.10
2018-12-22T00:20:11.180Z,14.10
2018-12-22T00:22:39.425Z,14.10
2018-12-22T00:25:07.702Z,14.10
2018-12-22T00:27:35.999Z,14.20
2018-12-22T00:30:05.533Z,14.20
2018-12-22T00:32:33.791Z,14.20
2018-12-22T00:35:02.214Z,14.20
2018-12-22T00:37:30.511Z,14.30
2018-12-22T00:39:58.813Z,14.30
2018-12-22T00:42:27.046Z,14.30
2018-12-22T00:44:55.264Z,14.30
2018-12-22T00:47:23.563Z,14.30
2018-12-22T00:49:52.003Z,14.30
2018-12-22T00:52:20.313Z,14.20
2018-12-22T00:54:48.697Z,14.20
2018-12-22T00:57:17.070Z,14.20
2018-12-22T00:59:45.345Z,14.20
2018-12-22T01:02:13.617Z,14.20
2018-12-22T01:04:41.880Z,14.20
2018-12-22T01:07:10.138Z,14.20
2018-12-22T01:09:38.367Z,14.20
2018-12-22T01:12:06.625Z,14.10
2018-12-22T01:14:34.988Z,14.10
2018-12-22T01:17:03.261Z,14.10
2018-12-22T01:19:31.674Z,14.10
2018-12-22T01:21:59.943Z,14.10
2018-12-22T01:24:28.213Z,14.20
2018-12-22T01:26:56.509Z,14.20
2018-12-22T01:29:24.765Z,14.20
2018-12-22T01:31:53.105Z,14.20
2018-12-22T01:34:21.418Z,14.20
2018-12-22T01:36:49.644Z,14.20
2018-12-22T01:39:17.907Z,14.20
2018-12-22T01:41:46.150Z,14.20
2018-12-22T01:44:14.426Z,14.20
2018-12-22T01:46:42.661Z,14.20
2018-12-22T01:49:11.038Z,14.20
2018-12-22T01:51:39.291Z,14.20
2018-12-22T01:54:07.526Z,14.10
2018-12-22T01:56:35.727Z,14.10
2018-12-22T01:59:04.132Z,14.00
2018-12-22T02:01:32.402Z,14.00
2018-12-22T02:04:00.713Z,13.90
2018-12-22T02:06:28.960Z,13.90
2018-12-22T02:08:57.182Z,13.90
2018-12-22T02:11:25.425Z,13.90
2018-12-22T02:13:53.682Z,13.90
2018-12-22T02:16:21.997Z,13.90
2018-12-22T02:18:50.249Z,13.90
2018-12-22T02:21:18.503Z,14.80
2018-12-22T02:23:46.740Z,13.90
2018-12-22T02:26:14.980Z,13.90
2018-12-22T02:28:43.234Z,13.90
2018-12-22T02:31:11.479Z,14.00
2018-12-22T02:33:39.716Z,14.00
2018-12-22T02:36:08.021Z,14.00
2018-12-22T02:38:36.271Z,14.00
2018-12-22T02:41:04.589Z,14.00
2018-12-22T02:43:32.892Z,14.00
2018-12-22T02:46:01.142Z,14.00
2018-12-22T02:48:29.446Z,14.00
2018-12-22T02:50:57.665Z,14.00
2018-12-22T02:53:25.913Z,14.10
2018-12-22T02:55:54.152Z,14.00
2018-12-22T02:58:22.608Z,14.00
2018-12-22T03:00:51.405Z,14.10
2018-12-22T03:03:19.696Z,14.00
2018-12-22T03:05:47.922Z,14.00
2018-12-22T03:08:16.156Z,14.00
2018-12-22T03:10:44.427Z,14.00
2018-12-22T03:13:12.732Z,14.00
2018-12-22T03:15:40.984Z,13.90
2018-12-22T03:18:09.277Z,14.00
2018-12-22T03:20:37.507Z,14.00
2018-12-22T03:23:05.822Z,14.00
2018-12-22T03:25:34.122Z,14.00
2018-12-22T03:28:02.446Z,14.00
2018-12-22T03:30:30.707Z,14.10
2018-12-22T03:32:59.058Z,14.10
2018-12-22T03:35:27.271Z,14.10
2018-12-22T03:37:55.522Z,14.10
2018-12-22T03:40:23.754Z,14.10
2018-12-22T03:42:51.999Z,14.10
2018-12-22T03:45:20.334Z,14.00
2018-12-22T03:47:48.609Z,14.10
2018-12-22T03:50:16.841Z,14.10
2018-12-22T03:52:45.104Z,14.00
2018-12-22T03:55:13.403Z,14.00
2018-12-22T03:57:41.757Z,14.00
2018-12-22T04:00:10.237Z,13.90
2018-12-22T04:02:38.526Z,14.00
2018-12-22T04:05:07.506Z,13.90
2018-12-22T04:07:35.998Z,13.80
2018-12-22T04:10:05.376Z,13.80
2018-12-22T04:12:34.006Z,13.70
2018-12-22T04:15:02.294Z,13.60
2018-12-22T04:17:30.528Z,13.60
2018-12-22T04:19:58.788Z,13.50
2018-12-22T04:22:27.133Z,13.40
2018-12-22T04:24:55.615Z,13.30
2018-12-22T04:27:23.826Z,13.20
2018-12-22T04:29:52.171Z,13.00
2018-12-22T04:32:20.413Z,12.80
2018-12-22T04:34:48.662Z,12.60
2018-12-22T04:37:16.953Z,12.50
2018-12-22T04:39:45.179Z,12.50
2018-12-22T04:42:13.386Z,12.40
2018-12-22T04:44:41.750Z,12.30
2018-12-22T04:47:09.969Z,12.30
2018-12-22T04:49:38.220Z,12.30
2018-12-22T04:52:06.444Z,12.20
2018-12-22T04:54:34.726Z,12.20
2018-12-22T04:57:03.070Z,12.10
2018-12-22T04:59:31.348Z,12.10
2018-12-22T05:01:59.646Z,12.10
2018-12-22T05:04:27.962Z,12.10
2018-12-22T05:06:56.337Z,12.10
2018-12-22T05:09:24.557Z,12.20
2018-12-22T05:11:52.861Z,12.20
2018-12-22T05:14:21.096Z,12.30
2018-12-22T05:16:49.354Z,12.40
2018-12-22T05:19:17.657Z,12.40
2018-12-22T05:21:45.881Z,12.50
2018-12-22T05:24:14.156Z,12.40
2018-12-22T05:26:42.463Z,12.50
2018-12-22T05:29:10.744Z,12.50
2018-12-22T05:31:38.962Z,12.50
2018-12-22T05:34:07.278Z,12.60
2018-12-22T05:36:35.752Z,12.60
2018-12-22T05:39:06.740Z,12.50
2018-12-22T05:41:35.073Z,12.50
2018-12-22T05:44:03.316Z,12.60
2018-12-22T05:46:31.571Z,12.60
2018-12-22T05:48:59.787Z,12.60
2018-12-22T05:51:28.002Z,12.60
2018-12-22T05:53:56.299Z,12.70
2018-12-22T05:56:24.602Z,12.70
2018-12-22T05:58:52.821Z,12.80
2018-12-22T06:01:21.160Z,12.80
2018-12-22T06:03:49.500Z,12.80
2018-12-22T06:06:17.786Z,12.80
2018-12-22T06:08:46.008Z,12.80
2018-12-22T06:11:14.299Z,12.80
2018-12-22T06:13:42.669Z,12.80
2018-12-22T06:16:10.915Z,12.80
2018-12-22T06:18:39.172Z,12.80
2018-12-22T06:21:07.437Z,12.80
2018-12-22T06:23:35.708Z,12.90
2018-12-22T06:26:03.987Z,13.00
2018-12-22T06:28:32.333Z,13.00
2018-12-22T06:31:00.641Z,13.10
2018-12-22T06:33:28.884Z,13.20
2018-12-22T06:35:57.233Z,13.30
2018-12-22T06:38:25.547Z,13.30
2018-12-22T06:40:53.836Z,13.20
2018-12-22T06:43:22.136Z,13.10
2018-12-22T06:45:50.443Z,13.00
2018-12-22T06:48:18.680Z,12.90
2018-12-22T06:50:46.955Z,12.90
2018-12-22T06:53:15.229Z,12.80
2018-12-22T06:55:43.495Z,12.90
2018-12-22T06:58:11.756Z,12.90
2018-12-22T07:00:40.067Z,12.90
2018-12-22T07:03:08.636Z,13.00
2018-12-22T07:05:37.007Z,12.90
2018-12-22T07:08:05.249Z,12.90
2018-12-22T07:10:33.554Z,12.90
2018-12-22T07:13:01.847Z,12.80
2018-12-22T07:15:30.226Z,12.80
2018-12-22T07:17:58.458Z,12.80
2018-12-22T07:20:26.830Z,12.80
2018-12-22T07:22:55.082Z,12.90
2018-12-22T07:25:23.402Z,12.80
2018-12-22T07:27:51.654Z,12.80
2018-12-22T07:30:26.058Z,12.80
2018-12-22T07:32:56.900Z,12.90
2018-12-22T07:35:20.437Z,12.90
2018-12-22T07:37:48.709Z,13.00
2018-12-22T07:40:17.032Z,13.00
2018-12-22T07:42:45.284Z,13.00
2018-12-22T07:45:13.512Z,12.90
2018-12-22T07:47:41.798Z,12.90
2018-12-22T07:50:10.118Z,12.80
2018-12-22T07:52:38.415Z,12.70
2018-12-22T07:55:06.957Z,12.70
2018-12-22T07:57:35.297Z,12.80
2018-12-22T08:00:03.838Z,12.80
2018-12-22T08:02:32.149Z,12.90
2018-12-22T08:05:00.463Z,13.00
2018-12-22T08:07:28.829Z,13.00
2018-12-22T08:09:57.182Z,13.00
2018-12-22T08:12:25.560Z,12.90
2018-12-22T08:14:53.866Z,12.90
2018-12-22T08:17:22.092Z,12.90
2018-12-22T08:19:50.424Z,13.00
2018-12-22T08:22:18.727Z,13.00
2018-12-22T08:24:47.098Z,13.00
2018-12-22T08:27:15.348Z,13.00
2018-12-22T08:29:43.667Z,12.90
2018-12-22T08:32:12.107Z,12.90
2018-12-22T08:34:40.413Z,12.90
2018-12-22T08:37:08.708Z,12.90
2018-12-22T08:39:37.024Z,13.00
2018-12-22T08:42:05.316Z,13.00
2018-12-22T08:44:33.610Z,13.00
2018-12-22T08:47:01.849Z,13.00
2018-12-22T08:49:30.131Z,13.00
2018-12-22T08:51:58.361Z,13.00
2018-12-22T08:54:26.664Z,13.00
2018-12-22T08:56:54.947Z,13.00
2018-12-22T08:59:23.248Z,13.00
2018-12-22T09:01:51.488Z,13.10
2018-12-22T09:04:19.801Z,13.20
2018-12-22T09:06:48.095Z,13.20
2018-12-22T09:09:16.382Z,13.10
2018-12-22T09:11:44.943Z,13.20
2018-12-22T09:14:13.260Z,13.20
2018-12-22T09:16:41.576Z,13.20
2018-12-22T09:19:09.907Z,13.20
2018-12-22T09:21:38.466Z,13.20
2018-12-22T09:24:06.917Z,13.20
2018-12-22T09:26:35.185Z,13.20
2018-12-22T09:29:03.456Z,13.20
2018-12-22T09:31:33.128Z,13.20
2018-12-22T09:34:01.979Z,13.20
2018-12-22T09:36:30.255Z,13.30
2018-12-22T09:38:58.492Z,13.40
2018-12-22T09:41:26.848Z,13.40
2018-12-22T09:43:55.322Z,13.40
2018-12-22T09:46:23.691Z,13.50
2018-12-22T09:48:52.164Z,13.60
2018-12-22T09:51:20.651Z,13.70
2018-12-22T09:53:49.247Z,13.70
2018-12-22T09:56:17.589Z,13.80
2018-12-22T09:58:45.895Z,13.80
2018-12-22T10:01:14.151Z,13.90
2018-12-22T10:03:42.519Z,13.90
2018-12-22T10:06:10.837Z,13.90
2018-12-22T10:08:39.138Z,13.80
2018-12-22T10:11:07.450Z,13.90
2018-12-22T10:13:35.745Z,13.90
2018-12-22T10:16:04.045Z,14.00
2018-12-22T10:18:32.321Z,14.10
2018-12-22T10:21:00.648Z,14.20
2018-12-22T10:23:28.913Z,14.20
2018-12-22T10:25:57.227Z,14.20
2018-12-22T10:28:25.515Z,14.20
2018-12-22T10:30:53.781Z,14.20
2018-12-22T10:33:22.038Z,14.20
2018-12-22T10:35:50.339Z,14.20
2018-12-22T10:38:18.669Z,14.10
2018-12-22T10:40:47.043Z,14.10
2018-12-22T10:43:15.370Z,14.10
2018-12-22T10:45:43.592Z,14.10
2018-12-22T10:48:11.970Z,14.00
2018-12-22T10:50:40.373Z,13.90
2018-12-22T10:53:08.631Z,13.90
2018-12-22T10:55:37.021Z,13.90
2018-12-22T10:58:05.700Z,13.90
2018-12-22T11:00:34.192Z,14.00
2018-12-22T11:03:02.487Z,14.00
2018-12-22T11:05:30.757Z,14.00
2018-12-22T11:07:59.638Z,13.90
2018-12-22T11:10:28.479Z,13.90
2018-12-22T11:12:59.178Z,13.90
2018-12-22T11:15:27.428Z,14.00
2018-12-22T11:17:55.737Z,14.10
2018-12-22T11:20:24.028Z,14.10
2018-12-22T11:22:52.346Z,14.20
2018-12-22T11:25:23.238Z,14.20
2018-12-22T11:27:51.632Z,14.30
2018-12-22T11:30:28.197Z,14.30
2018-12-22T11:32:56.446Z,14.30
2018-12-22T11:35:24.727Z,14.30
2018-12-22T11:37:53.360Z,14.20
2018-12-22T11:40:21.867Z,14.10
2018-12-22T11:42:50.268Z,13.90
2018-12-22T11:45:18.573Z,13.90
2018-12-22T11:48:09.123Z,13.90
2018-12-22T11:50:37.402Z,14.00
2018-12-22T11:53:05.697Z,13.90
2018-12-22T11:55:34.213Z,13.90
2018-12-22T11:58:03.061Z,14.00
2018-12-22T12:00:31.489Z,14.00
2018-12-22T12:02:59.921Z,14.10
2018-12-22T12:05:28.274Z,14.20
2018-12-22T12:07:56.574Z,14.20
2018-12-22T12:10:24.907Z,14.30
2018-12-22T12:12:53.347Z,14.30
2018-12-22T12:15:24.822Z,14.40
2018-12-22T12:18:09.291Z,14.40
2018-12-22T12:20:37.797Z,14.40
2018-12-22T12:23:06.073Z,14.40
2018-12-22T12:25:34.487Z,14.50
2018-12-22T12:28:02.827Z,14.50
2018-12-22T12:30:31.475Z,14.50
2018-12-22T12:32:59.789Z,14.50
2018-12-22T12:35:28.232Z,14.40
2018-12-22T12:37:56.541Z,14.30
2018-12-22T12:40:24.828Z,14.30
2018-12-22T12:42:53.115Z,14.40
2018-12-22T12:45:21.624Z,14.50
2018-12-22T12:47:50.471Z,14.50
2018-12-22T12:50:20.832Z,14.50
2018-12-22T12:52:49.194Z,14.50
2018-12-22T12:55:17.546Z,14.50
2018-12-22T12:57:45.800Z,14.50
2018-12-22T13:00:16.004Z,14.50
2018-12-22T13:02:44.357Z,14.60
2018-12-22T13:05:12.777Z,14.70
2018-12-22T13:07:41.160Z,14.80
2018-12-22T13:10:11.165Z,14.80
2018-12-22T13:12:48.283Z,14.80
2018-12-22T13:15:16.562Z,14.90
2018-12-22T13:17:44.819Z,15.00
2018-12-22T13:20:13.284Z,15.00
2018-12-22T13:22:41.589Z,14.90
2018-12-22T13:25:09.958Z,14.90
2018-12-22T13:27:38.271Z,16.30
2018-12-22T13:30:08.841Z,14.80
2018-12-22T13:32:37.242Z,14.80
2018-12-22T13:35:07.757Z,14.80
2018-12-22T13:37:36.160Z,14.90
2018-12-22T13:40:05.630Z,14.90
2018-12-22T13:42:34.713Z,14.80
2018-12-22T13:45:03.161Z,14.70
2018-12-22T13:47:31.465Z,14.60
2018-12-22T13:50:00.022Z,14.40
2018-12-22T13:52:28.462Z,14.30
2018-12-22T13:54:56.780Z,14.20
2018-12-22T13:57:25.512Z,14.10
2018-12-22T13:59:53.899Z,14.00
2018-12-22T14:02:22.195Z,13.90
2018-12-22T14:04:50.442Z,13.90
2018-12-22T14:07:18.726Z,13.90
2018-12-22T14:09:47.032Z,13.90
2018-12-22T14:12:15.349Z,13.90
2018-12-22T14:14:43.693Z,13.90
2018-12-22T14:17:19.803Z,13.90
2018-12-22T14:19:55.220Z,13.80
2018-12-22T14:22:23.490Z,13.80
2018-12-22T14:24:53.288Z,13.80
2018-12-22T14:27:21.678Z,12.40
2018-12-22T14:29:49.958Z,13.90
2018-12-22T14:32:26.725Z,14.00
2018-12-22T14:34:56.242Z,14.00
2018-12-22T14:37:24.508Z,14.00
2018-12-22T14:39:52.836Z,13.90
2018-12-22T14:42:21.101Z,13.90
2018-12-22T14:44:49.467Z,13.90
2018-12-22T14:47:17.756Z,13.90
2018-12-22T14:49:46.133Z,13.90
2018-12-22T14:52:14.404Z,13.90
2018-12-22T14:54:42.783Z,13.90
2018-12-22T14:57:12.070Z,13.90
2018-12-22T14:59:40.458Z,14.00
2018-12-22T15:02:08.766Z,13.90
2018-12-22T15:04:37.065Z,13.90
2018-12-22T15:07:06.630Z,13.90
2018-12-22T15:09:35.797Z,13.90
2018-12-22T15:12:04.181Z,13.90
2018-12-22T15:14:32.417Z,13.80
2018-12-22T15:17:00.662Z,13.80
2018-12-22T15:19:29.462Z,13.70
2018-12-22T15:21:59.373Z,13.70
2018-12-22T15:24:27.701Z,13.60
2018-12-22T15:26:56.043Z,13.60
2018-12-22T15:29:24.439Z,13.60
2018-12-22T15:31:52.683Z,13.60
2018-12-22T15:34:20.981Z,13.50
2018-12-22T15:36:49.299Z,13.50
2018-12-22T15:39:17.588Z,13.40
2018-12-22T15:41:45.827Z,13.40
2018-12-22T15:44:14.178Z,13.30
2018-12-22T15:46:42.475Z,13.30
2018-12-22T15:49:11.932Z,13.20
2018-12-22T15:51:40.189Z,13.20
2018-12-22T15:54:08.434Z,13.10
2018-12-22T15:56:36.849Z,13.10
2018-12-22T15:59:05.065Z,13.00
2018-12-22T16:01:33.688Z,13.00
2018-12-22T16:04:02.038Z,12.90
2018-12-22T16:06:30.319Z,12.90
2018-12-22T16:08:58.735Z,12.80
2018-12-22T16:11:27.334Z,12.80
2018-12-22T16:13:55.605Z,12.80
2018-12-22T16:16:24.087Z,12.90
2018-12-22T16:18:52.533Z,12.80
2018-12-22T16:21:20.765Z,12.80
2018-12-22T16:23:49.095Z,12.80
2018-12-22T16:26:17.393Z,12.80
2018-12-22T16:28:49.575Z,12.80
2018-12-22T16:31:17.834Z,12.80
2018-12-22T16:33:46.159Z,12.70
2018-12-22T16:36:14.421Z,12.70
2018-12-22T16:38:42.682Z,12.60
2018-12-22T16:41:10.920Z,12.60
2018-12-22T16:43:40.051Z,12.60
2018-12-22T16:46:08.316Z,12.50
2018-12-22T16:48:37.580Z,12.50
2018-12-22T16:51:05.858Z,12.50
2018-12-22T16:53:34.104Z,12.50
2018-12-22T16:56:02.386Z,12.50
2018-12-22T16:58:35.079Z,12.40
2018-12-22T17:01:15.037Z,12.40
2018-12-22T17:03:43.303Z,12.40
2018-12-22T17:06:12.589Z,12.40
2018-12-22T17:08:40.936Z,12.30
2018-12-22T17:11:09.261Z,12.40
2018-12-22T17:13:37.622Z,12.40
2018-12-22T17:16:06.209Z,12.40
2018-12-22T17:18:34.568Z,12.40
2018-12-22T17:21:13.166Z,12.40
2018-12-22T17:23:48.166Z,12.40
2018-12-22T17:26:16.519Z,12.40
2018-12-22T17:28:44.908Z,12.40
2018-12-22T17:31:13.204Z,12.40
2018-12-22T17:33:41.460Z,12.40
2018-12-22T17:36:09.719Z,12.40
2018-12-22T17:38:38.094Z,12.50
2018-12-22T17:41:06.332Z,12.50
2018-12-22T17:43:35.059Z,12.50
2018-12-22T17:46:03.424Z,12.50
2018-12-22T17:48:31.833Z,12.50
2018-12-22T17:51:00.036Z,12.50
2018-12-22T17:53:28.283Z,12.50
2018-12-22T17:55:56.741Z,12.50
2018-12-22T17:58:24.982Z,12.50
2018-12-22T18:00:53.328Z,12.60
2018-12-22T18:03:27.557Z,12.60
2018-12-22T18:05:54.301Z,12.70
2018-12-22T18:08:22.523Z,12.60
2018-12-22T18:10:50.760Z,12.60
2018-12-22T18:13:19.010Z,12.60
2018-12-22T18:15:47.267Z,12.60
2018-12-22T18:18:15.507Z,12.60
2018-12-22T18:20:43.823Z,12.60
2018-12-22T18:23:12.062Z,12.60
2018-12-22T18:25:40.331Z,12.50
2018-12-22T18:28:08.565Z,12.50
2018-12-22T18:30:36.881Z,12.40
2018-12-22T18:33:05.140Z,12.30
2018-12-22T18:35:33.356Z,12.30
2018-12-22T18:38:01.641Z,12.30
2018-12-22T18:40:29.888Z,12.30
2018-12-22T18:42:58.149Z,12.30
2018-12-22T18:45:26.461Z,12.30
2018-12-22T18:47:54.735Z,12.20
2018-12-22T18:50:24.968Z,12.20
2018-12-22T18:52:53.193Z,12.20
2018-12-22T18:55:21.530Z,12.20
2018-12-22T18:57:52.562Z,12.20
2018-12-22T19:00:22.246Z,12.20
2018-12-22T19:02:51.174Z,12.10
2018-12-22T19:05:20.762Z,12.10
2018-12-22T19:07:50.266Z,12.10
2018-12-22T19:10:26.611Z,12.00
2018-12-22T19:12:56.160Z,12.00
2018-12-22T19:15:24.631Z,11.90
2018-12-22T19:17:52.877Z,11.90
2018-12-22T19:20:26.185Z,11.90
2018-12-22T19:22:54.411Z,11.90
2018-12-22T19:25:22.715Z,11.90
2018-12-22T19:27:50.930Z,11.80
2018-12-22T19:30:20.305Z,11.80
2018-12-22T19:32:48.550Z,11.70
2018-12-22T19:35:16.793Z,11.70
2018-12-22T19:37:45.011Z,11.60
2018-12-22T19:40:13.269Z,11.60
2018-12-22T19:42:41.533Z,11.60
2018-12-22T19:45:10.039Z,11.60
2018-12-22T19:47:38.290Z,11.60
2018-12-22T19:50:07.024Z,11.60
2018-12-22T19:52:35.262Z,11.60
2018-12-22T19:55:03.597Z,11.60
2018-12-22T19:57:32.004Z,11.60
2018-12-22T20:00:00.315Z,11.50
2018-12-22T20:02:28.607Z,11.50
2018-12-22T20:04:56.966Z,11.50
2018-12-22T20:07:25.630Z,11.50
2018-12-22T20:09:53.841Z,11.50
2018-12-22T20:12:22.095Z,11.50
2018-12-22T20:14:50.748Z,11.50
2018-12-22T20:17:19.002Z,11.50
2018-12-22T20:19:47.265Z,11.50
2018-12-22T20:22:15.639Z,11.50
2018-12-22T20:24:49.554Z,11.50
2018-12-22T20:27:17.874Z,11.50
2018-12-22T20:29:46.129Z,11.60
2018-12-22T20:32:14.358Z,11.60
2018-12-22T20:34:42.631Z,11.70
2018-12-22T20:37:11.122Z,11.80
2018-12-22T20:39:39.359Z,11.90
2018-12-22T20:42:07.760Z,12.00
2018-12-22T20:44:36.022Z,12.00
2018-12-22T20:47:04.224Z,12.10
2018-12-22T20:49:32.531Z,12.10
2018-12-22T20:52:01.117Z,12.10
2018-12-22T20:54:29.486Z,12.00
2018-12-22T20:56:57.714Z,12.00
2018-12-22T20:59:26.237Z,12.00
2018-12-22T21:01:54.573Z,12.00
2018-12-22T21:04:22.896Z,11.90
2018-12-22T21:06:51.167Z,11.80
2018-12-22T21:09:19.383Z,11.70
2018-12-22T21:11:47.674Z,11.60
2018-12-22T21:14:15.943Z,11.50
2018-12-22T21:16:44.194Z,11.50
2018-12-22T21:19:12.440Z,11.40
2018-12-22T21:21:40.737Z,11.40
2018-12-22T21:24:09.104Z,11.40
2018-12-22T21:26:37.785Z,11.30
2018-12-22T21:29:06.079Z,11.30
2018-12-22T21:31:34.401Z,11.30
2018-12-22T21:34:02.670Z,11.30
2018-12-22T21:36:30.946Z,11.30
2018-12-22T21:38:59.443Z,11.30
2018-12-22T21:41:27.731Z,11.40
2018-12-22T21:43:56.009Z,11.50
2018-12-22T21:46:24.280Z,11.50
2018-12-22T21:48:52.538Z,11.60
2018-12-22T21:51:20.855Z,11.70
2018-12-22T21:53:49.122Z,11.70
2018-12-22T21:56:17.412Z,11.80
2018-12-22T21:58:45.805Z,11.80
2018-12-22T22:01:14.137Z,11.80
2018-12-22T22:03:42.451Z,11.90
2018-12-22T22:06:10.681Z,11.80
2018-12-22T22:08:38.920Z,11.80
2018-12-22T22:11:07.167Z,11.80
2018-12-22T22:13:35.444Z,11.70
2018-12-22T22:16:03.718Z,11.80
2018-12-22T22:18:31.976Z,11.80
2018-12-22T22:21:00.234Z,11.80
2018-12-22T22:23:28.525Z,11.90
2018-12-22T22:25:56.781Z,11.90
2018-12-22T22:28:25.071Z,11.90
2018-12-22T22:30:53.318Z,12.00
2018-12-22T22:33:21.868Z,11.90
2018-12-22T22:35:50.179Z,12.00
2018-12-22T22:38:18.421Z,12.00
2018-12-22T22:40:46.734Z,12.00
2018-12-22T22:43:15.018Z,12.00
2018-12-22T22:45:43.299Z,12.00
2018-12-22T22:48:11.698Z,12.00
2018-12-22T22:50:39.953Z,12.00
2018-12-22T22:53:08.195Z,12.00
2018-12-22T22:55:36.453Z,12.00
2018-12-22T22:58:04.760Z,12.00
2018-12-22T23:00:36.457Z,12.00
2018-12-22T23:03:05.096Z,12.00
2018-12-22T23:05:33.513Z,12.00
2018-12-22T23:08:01.802Z,12.00
2018-12-22T23:10:30.190Z,11.90
2018-12-22T23:12:58.506Z,11.80
2018-12-22T23:15:26.791Z,11.70
2018-12-22T23:17:55.139Z,11.60
2018-12-22T23:20:23.430Z,11.70
2018-12-22T23:22:51.726Z,11.70
2018-12-22T23:25:20.059Z,11.80
2018-12-22T23:27:48.378Z,11.80
2018-12-22T23:30:16.692Z,11.90
2018-12-22T23:32:44.894Z,11.90
2018-12-22T23:35:13.168Z,11.90
2018-12-22T23:37:41.415Z,11.90
2018-12-22T23:40:09.764Z,11.90
2018-12-22T23:42:38.132Z,11.90
2018-12-22T23:45:06.887Z,11.90
2018-12-22T23:47:35.153Z,12.00
2018-12-22T23:50:04.178Z,12.00
2018-12-22T23:52:32.482Z,12.00
2018-12-22T23:55:00.735Z,12.00
2018-12-22T23:57:28.947Z,12.10
2018-12-22T23:59:57.316Z,12.00
